Terminal Aerodrome Forecast
Issued by NWS

Home | Current Version | Previous Version | Graphics & Text | Print | Product List | Glossary On
Versions: 1 2 3 4 5 6 7 8 9 10 11 12 13 14 15 16 17 18 19 20 21 22 23 24 25 26 27 28 29
391
FTUS43 KLOT 211121
TAFMDW
TAF
KMDW 211121Z 2112/2212 19007KT P6SM FEW040 OVC250
     FM211700 21008KT P6SM VCSH BKN045 BKN150
     FM212000 21009KT P6SM SCT050 BKN150
     FM220600 20009KT P6SM VCTS BKN050CB
     FM220800 21009KT 4SM TSRA OVC035CB
      TEMPO 2208/2210 2SM TSRA OVC015CB
     FM221000 25010KT 6SM -SHRA OVC020=

USA.gov is the U.S. government's official web portal to all federal, state and local government web resources and services.